sensor_id;sensor_type;location;lat;lon;timestamp;pressure;altitude;pressure_sealevel;temperature;humidity
58668;BME280;59852;43.086;25.634;2023-08-30T00:01:33;97769.34;;;25.62;49.86
58668;BME280;59852;43.086;25.634;2023-08-30T00:03:59;97768.53;;;25.62;49.72
58668;BME280;59852;43.086;25.634;2023-08-30T00:06:24;97766.38;;;25.40;49.84
58668;BME280;59852;43.086;25.634;2023-08-30T00:08:50;97765.59;;;25.52;49.61
58668;BME280;59852;43.086;25.634;2023-08-30T00:11:15;97755.44;;;25.42;49.46
58668;BME280;59852;43.086;25.634;2023-08-30T00:13:41;97752.31;;;24.97;51.78
58668;BME280;59852;43.086;25.634;2023-08-30T00:16:07;97757.16;;;25.06;51.25
58668;BME280;59852;43.086;25.634;2023-08-30T00:18:32;97751.63;;;25.01;51.69
58668;BME280;59852;43.086;25.634;2023-08-30T00:20:58;97752.41;;;24.90;51.87
58668;BME280;59852;43.086;25.634;2023-08-30T00:23:23;97748.38;;;24.99;51.88
58668;BME280;59852;43.086;25.634;2023-08-30T00:25:49;97757.59;;;25.03;51.67
58668;BME280;59852;43.086;25.634;2023-08-30T00:28:14;97761.00;;;24.92;52.01
58668;BME280;59852;43.086;25.634;2023-08-30T00:30:39;97758.13;;;24.57;52.30
58668;BME280;59852;43.086;25.634;2023-08-30T00:33:05;97756.94;;;24.71;52.11
58668;BME280;59852;43.086;25.634;2023-08-30T00:35:31;97753.66;;;24.87;51.34
58668;BME280;59852;43.086;25.634;2023-08-30T00:37:56;97750.25;;;24.99;50.79
58668;BME280;59852;43.086;25.634;2023-08-30T00:40:24;97748.59;;;24.98;50.83
58668;BME280;59852;43.086;25.634;2023-08-30T00:42:50;97754.31;;;25.01;51.20
58668;BME280;59852;43.086;25.634;2023-08-30T00:45:15;97755.59;;;24.99;50.93
58668;BME280;59852;43.086;25.634;2023-08-30T00:47:40;97765.13;;;24.40;52.16
58668;BME280;59852;43.086;25.634;2023-08-30T00:50:06;97762.59;;;24.81;51.61
58668;BME280;59852;43.086;25.634;2023-08-30T00:52:32;97773.06;;;24.21;53.54
58668;BME280;59852;43.086;25.634;2023-08-30T00:54:57;97768.59;;;24.40;52.89
58668;BME280;59852;43.086;25.634;2023-08-30T00:57:22;97771.31;;;24.09;54.25
58668;BME280;59852;43.086;25.634;2023-08-30T00:59:48;97776.91;;;24.25;53.76
58668;BME280;59852;43.086;25.634;2023-08-30T01:02:16;97773.84;;;24.47;53.94
58668;BME280;59852;43.086;25.634;2023-08-30T01:04:41;97781.59;;;24.55;53.45
58668;BME280;59852;43.086;25.634;2023-08-30T01:07:07;97783.81;;;24.76;52.31
58668;BME280;59852;43.086;25.634;2023-08-30T01:09:33;97791.94;;;24.88;51.98
58668;BME280;59852;43.086;25.634;2023-08-30T01:12:13;97791.25;;;24.56;53.09
58668;BME280;59852;43.086;25.634;2023-08-30T01:14:47;97797.94;;;24.65;53.46
58668;BME280;59852;43.086;25.634;2023-08-30T01:17:17;97812.22;;;24.59;53.34
58668;BME280;59852;43.086;25.634;2023-08-30T01:27:28;97812.84;;;24.54;53.99
58668;BME280;59852;43.086;25.634;2023-08-30T01:29:57;97817.91;;;24.44;54.37
58668;BME280;59852;43.086;25.634;2023-08-30T01:32:23;97809.97;;;24.74;53.83
58668;BME280;59852;43.086;25.634;2023-08-30T01:34:51;97813.06;;;24.28;54.25
58668;BME280;59852;43.086;25.634;2023-08-30T01:37:16;97817.56;;;24.34;54.23
58668;BME280;59852;43.086;25.634;2023-08-30T01:39:42;97817.91;;;24.63;53.53
58668;BME280;59852;43.086;25.634;2023-08-30T01:42:08;97813.88;;;24.28;53.93
58668;BME280;59852;43.086;25.634;2023-08-30T01:44:34;97820.47;;;24.33;54.19
58668;BME280;59852;43.086;25.634;2023-08-30T01:47:00;97818.63;;;24.33;54.24
58668;BME280;59852;43.086;25.634;2023-08-30T01:49:26;97819.75;;;24.44;54.27
58668;BME280;59852;43.086;25.634;2023-08-30T01:51:52;97819.31;;;24.22;54.60
58668;BME280;59852;43.086;25.634;2023-08-30T01:54:18;97821.44;;;24.13;55.28
58668;BME280;59852;43.086;25.634;2023-08-30T01:56:45;97816.38;;;24.30;54.66
58668;BME280;59852;43.086;25.634;2023-08-30T01:59:11;97813.50;;;24.25;54.34
58668;BME280;59852;43.086;25.634;2023-08-30T02:01:37;97819.09;;;24.23;54.90
58668;BME280;59852;43.086;25.634;2023-08-30T02:04:02;97821.47;;;24.07;54.70
58668;BME280;59852;43.086;25.634;2023-08-30T02:06:30;97818.91;;;24.18;54.62
58668;BME280;59852;43.086;25.634;2023-08-30T02:09:03;97827.00;;;24.12;54.91
58668;BME280;59852;43.086;25.634;2023-08-30T02:11:30;97818.41;;;23.78;55.95
58668;BME280;59852;43.086;25.634;2023-08-30T02:13:57;97820.69;;;23.74;56.16
58668;BME280;59852;43.086;25.634;2023-08-30T02:16:23;97823.00;;;23.96;55.62
58668;BME280;59852;43.086;25.634;2023-08-30T02:18:50;97821.41;;;23.88;55.73
58668;BME280;59852;43.086;25.634;2023-08-30T02:21:16;97816.75;;;23.77;56.74
58668;BME280;59852;43.086;25.634;2023-08-30T02:23:41;97818.00;;;23.81;56.03
58668;BME280;59852;43.086;25.634;2023-08-30T02:26:07;97816.03;;;23.63;56.98
58668;BME280;59852;43.086;25.634;2023-08-30T02:28:32;97821.97;;;23.65;56.55
58668;BME280;59852;43.086;25.634;2023-08-30T02:30:57;97830.44;;;23.49;57.03
58668;BME280;59852;43.086;25.634;2023-08-30T02:33:23;97824.97;;;23.82;56.68
58668;BME280;59852;43.086;25.634;2023-08-30T02:35:48;97832.97;;;23.82;56.91
58668;BME280;59852;43.086;25.634;2023-08-30T02:38:14;97822.34;;;23.69;56.78
58668;BME280;59852;43.086;25.634;2023-08-30T02:40:39;97815.91;;;23.45;57.33
58668;BME280;59852;43.086;25.634;2023-08-30T02:43:04;97814.53;;;23.36;58.24
58668;BME280;59852;43.086;25.634;2023-08-30T02:45:30;97819.34;;;23.59;57.37
58668;BME280;59852;43.086;25.634;2023-08-30T02:47:55;97818.13;;;23.55;57.45
58668;BME280;59852;43.086;25.634;2023-08-30T02:50:22;97807.00;;;23.64;57.40
58668;BME280;59852;43.086;25.634;2023-08-30T02:52:47;97802.19;;;23.41;58.28
58668;BME280;59852;43.086;25.634;2023-08-30T02:55:12;97800.50;;;23.47;58.39
58668;BME280;59852;43.086;25.634;2023-08-30T02:57:38;97805.47;;;23.37;58.56
58668;BME280;59852;43.086;25.634;2023-08-30T03:00:03;97805.22;;;23.07;59.40
58668;BME280;59852;43.086;25.634;2023-08-30T03:02:31;97805.56;;;23.24;58.87
58668;BME280;59852;43.086;25.634;2023-08-30T03:04:56;97814.25;;;23.06;59.75
58668;BME280;59852;43.086;25.634;2023-08-30T03:07:22;97804.91;;;23.28;59.54
58668;BME280;59852;43.086;25.634;2023-08-30T03:09:51;97798.63;;;23.16;59.48
58668;BME280;59852;43.086;25.634;2023-08-30T03:12:16;97802.19;;;23.41;58.70
58668;BME280;59852;43.086;25.634;2023-08-30T03:14:42;97802.66;;;23.32;59.17
58668;BME280;59852;43.086;25.634;2023-08-30T03:17:07;97806.97;;;23.26;59.80
58668;BME280;59852;43.086;25.634;2023-08-30T03:19:32;97797.69;;;22.90;60.48
58668;BME280;59852;43.086;25.634;2023-08-30T03:21:58;97802.66;;;23.32;59.88
58668;BME280;59852;43.086;25.634;2023-08-30T03:24:25;97803.72;;;23.17;60.26
58668;BME280;59852;43.086;25.634;2023-08-30T03:26:50;97797.78;;;23.22;60.33
58668;BME280;59852;43.086;25.634;2023-08-30T03:29:15;97806.28;;;23.44;59.33
58668;BME280;59852;43.086;25.634;2023-08-30T03:31:41;97801.47;;;23.21;59.96
58668;BME280;59852;43.086;25.634;2023-08-30T03:34:08;97808.38;;;23.29;60.43
58668;BME280;59852;43.086;25.634;2023-08-30T03:36:33;97802.59;;;22.80;60.87
58668;BME280;59852;43.086;25.634;2023-08-30T03:38:59;97795.47;;;22.61;61.79
58668;BME280;59852;43.086;25.634;2023-08-30T03:41:24;97807.19;;;22.60;62.47
58668;BME280;59852;43.086;25.634;2023-08-30T03:43:49;97809.03;;;22.66;62.13
58668;BME280;59852;43.086;25.634;2023-08-30T03:46:15;97808.63;;;22.56;62.70
58668;BME280;59852;43.086;25.634;2023-08-30T03:48:40;97804.59;;;23.11;60.71
58668;BME280;59852;43.086;25.634;2023-08-30T03:51:05;97808.03;;;23.18;60.69
58668;BME280;59852;43.086;25.634;2023-08-30T03:53:31;97810.44;;;22.69;61.75
58668;BME280;59852;43.086;25.634;2023-08-30T03:55:56;97814.78;;;22.56;62.48
58668;BME280;59852;43.086;25.634;2023-08-30T03:58:21;97817.47;;;22.43;62.99
58668;BME280;59852;43.086;25.634;2023-08-30T04:00:47;97827.09;;;22.38;63.03
58668;BME280;59852;43.086;25.634;2023-08-30T04:03:13;97817.84;;;22.60;62.78
58668;BME280;59852;43.086;25.634;2023-08-30T04:05:39;97832.47;;;23.15;61.06
58668;BME280;59852;43.086;25.634;2023-08-30T04:08:04;97835.00;;;23.04;61.56
58668;BME280;59852;43.086;25.634;2023-08-30T04:10:34;97847.13;;;22.93;61.69
58668;BME280;59852;43.086;25.634;2023-08-30T04:12:59;97842.34;;;23.08;61.57
58668;BME280;59852;43.086;25.634;2023-08-30T04:15:24;97842.91;;;23.24;60.78
58668;BME280;59852;43.086;25.634;2023-08-30T04:17:50;97843.59;;;23.06;61.15
58668;BME280;59852;43.086;25.634;2023-08-30T04:20:15;97848.50;;;23.09;60.92
58668;BME280;59852;43.086;25.634;2023-08-30T04:22:40;97842.81;;;22.92;61.54
58668;BME280;59852;43.086;25.634;2023-08-30T04:25:06;97838.72;;;22.89;62.23
58668;BME280;59852;43.086;25.634;2023-08-30T04:27:34;97845.91;;;22.76;62.79
58668;BME280;59852;43.086;25.634;2023-08-30T04:29:59;97854.72;;;22.89;62.51
58668;BME280;59852;43.086;25.634;2023-08-30T04:32:25;97863.47;;;23.10;61.60
58668;BME280;59852;43.086;25.634;2023-08-30T04:34:50;97861.38;;;23.18;61.51
58668;BME280;59852;43.086;25.634;2023-08-30T04:37:15;97863.28;;;23.56;61.25
58668;BME280;59852;43.086;25.634;2023-08-30T04:39:41;97858.97;;;23.62;60.36
58668;BME280;59852;43.086;25.634;2023-08-30T04:42:06;97861.94;;;23.79;59.62
58668;BME280;59852;43.086;25.634;2023-08-30T04:44:31;97873.19;;;22.84;61.76
58668;BME280;59852;43.086;25.634;2023-08-30T04:46:57;97869.44;;;23.57;60.54
58668;BME280;59852;43.086;25.634;2023-08-30T04:49:22;97882.75;;;24.01;59.45
58668;BME280;59852;43.086;25.634;2023-08-30T04:51:50;97883.84;;;23.94;60.29
58668;BME280;59852;43.086;25.634;2023-08-30T04:54:15;97880.53;;;23.54;60.62
58668;BME280;59852;43.086;25.634;2023-08-30T04:56:41;97877.91;;;22.76;62.16
58668;BME280;59852;43.086;25.634;2023-08-30T04:59:07;97884.94;;;23.28;61.50
58668;BME280;59852;43.086;25.634;2023-08-30T05:01:32;97880.13;;;23.05;61.29
58668;BME280;59852;43.086;25.634;2023-08-30T05:03:57;97877.69;;;23.48;60.80
58668;BME280;59852;43.086;25.634;2023-08-30T05:06:23;97882.19;;;23.48;60.16
58668;BME280;59852;43.086;25.634;2023-08-30T05:08:48;97878.53;;;23.42;60.89
58668;BME280;59852;43.086;25.634;2023-08-30T05:11:13;97878.84;;;23.21;61.22
58668;BME280;59852;43.086;25.634;2023-08-30T05:13:39;97880.41;;;23.35;61.87
58668;BME280;59852;43.086;25.634;2023-08-30T05:16:04;97875.00;;;23.62;60.87
58668;BME280;59852;43.086;25.634;2023-08-30T05:18:30;97877.88;;;22.96;61.93
58668;BME280;59852;43.086;25.634;2023-08-30T05:20:55;97884.56;;;23.18;61.27
58668;BME280;59852;43.086;25.634;2023-08-30T05:23:20;97882.63;;;22.87;61.48
58668;BME280;59852;43.086;25.634;2023-08-30T05:25:46;97889.97;;;22.98;61.79
58668;BME280;59852;43.086;25.634;2023-08-30T05:28:12;97891.44;;;22.94;62.51
58668;BME280;59852;43.086;25.634;2023-08-30T05:30:38;97888.78;;;23.45;61.43
58668;BME280;59852;43.086;25.634;2023-08-30T05:33:04;97892.88;;;23.48;60.72
58668;BME280;59852;43.086;25.634;2023-08-30T05:35:30;97892.03;;;23.54;60.71
58668;BME280;59852;43.086;25.634;2023-08-30T05:37:55;97899.63;;;23.57;60.21
58668;BME280;59852;43.086;25.634;2023-08-30T05:40:21;97893.31;;;23.38;60.67
58668;BME280;59852;43.086;25.634;2023-08-30T05:42:46;97897.16;;;24.00;59.53
58668;BME280;59852;43.086;25.634;2023-08-30T05:45:11;97899.91;;;24.19;58.93
58668;BME280;59852;43.086;25.634;2023-08-30T05:47:37;97901.88;;;24.30;59.73
58668;BME280;59852;43.086;25.634;2023-08-30T05:50:02;97906.81;;;24.01;58.51
58668;BME280;59852;43.086;25.634;2023-08-30T05:52:27;97901.25;;;23.65;59.66
58668;BME280;59852;43.086;25.634;2023-08-30T05:54:53;97902.34;;;23.44;59.58
58668;BME280;59852;43.086;25.634;2023-08-30T05:57:18;97906.44;;;23.60;59.25
58668;BME280;59852;43.086;25.634;2023-08-30T05:59:44;97915.47;;;23.52;59.72
58668;BME280;59852;43.086;25.634;2023-08-30T06:02:09;97916.44;;;23.71;59.54
58668;BME280;59852;43.086;25.634;2023-08-30T06:04:35;97912.16;;;24.26;58.40
58668;BME280;59852;43.086;25.634;2023-08-30T06:07:00;97915.94;;;24.50;57.29
58668;BME280;59852;43.086;25.634;2023-08-30T06:09:26;97921.34;;;24.06;58.95
58668;BME280;59852;43.086;25.634;2023-08-30T06:11:51;97907.41;;;24.35;57.89
58668;BME280;59852;43.086;25.634;2023-08-30T06:14:16;97914.78;;;24.65;58.11
58668;BME280;59852;43.086;25.634;2023-08-30T06:16:42;97916.00;;;24.69;57.25
58668;BME280;59852;43.086;25.634;2023-08-30T06:19:10;97908.28;;;24.79;56.18
58668;BME280;59852;43.086;25.634;2023-08-30T06:21:35;97915.53;;;24.72;56.95
58668;BME280;59852;43.086;25.634;2023-08-30T06:24:00;97914.94;;;24.70;56.86
58668;BME280;59852;43.086;25.634;2023-08-30T06:26:26;97919.06;;;24.66;57.48
58668;BME280;59852;43.086;25.634;2023-08-30T06:28:51;97917.94;;;24.80;57.28
58668;BME280;59852;43.086;25.634;2023-08-30T06:31:17;97920.19;;;24.33;57.88
58668;BME280;59852;43.086;25.634;2023-08-30T06:33:42;97911.91;;;24.41;58.05
58668;BME280;59852;43.086;25.634;2023-08-30T06:36:08;97909.75;;;24.75;56.97
58668;BME280;59852;43.086;25.634;2023-08-30T06:38:36;97904.34;;;24.56;57.00
58668;BME280;59852;43.086;25.634;2023-08-30T06:41:01;97905.25;;;24.19;57.85
58668;BME280;59852;43.086;25.634;2023-08-30T06:43:27;97896.91;;;24.83;56.35
58668;BME280;59852;43.086;25.634;2023-08-30T06:45:52;97900.88;;;24.99;56.07
58668;BME280;59852;43.086;25.634;2023-08-30T06:48:18;97899.81;;;24.82;55.90
58668;BME280;59852;43.086;25.634;2023-08-30T06:50:43;97897.09;;;25.07;55.70
58668;BME280;59852;43.086;25.634;2023-08-30T06:53:08;97908.78;;;25.12;55.38
58668;BME280;59852;43.086;25.634;2023-08-30T06:55:34;97902.16;;;25.33;54.42
58668;BME280;59852;43.086;25.634;2023-08-30T06:58:01;97903.72;;;25.23;55.29
58668;BME280;59852;43.086;25.634;2023-08-30T07:00:26;97906.03;;;25.37;55.46
58668;BME280;59852;43.086;25.634;2023-08-30T07:02:51;97901.94;;;25.16;55.91
58668;BME280;59852;43.086;25.634;2023-08-30T07:05:17;97898.06;;;25.31;55.52
58668;BME280;59852;43.086;25.634;2023-08-30T07:07:42;97897.25;;;25.30;55.77
58668;BME280;59852;43.086;25.634;2023-08-30T07:10:08;97901.09;;;25.71;54.87
58668;BME280;59852;43.086;25.634;2023-08-30T07:12:34;97900.22;;;25.40;54.32
58668;BME280;59852;43.086;25.634;2023-08-30T07:14:59;97894.97;;;25.64;54.00
58668;BME280;59852;43.086;25.634;2023-08-30T07:17:24;97889.53;;;25.89;53.89
58668;BME280;59852;43.086;25.634;2023-08-30T07:19:50;97893.38;;;25.93;53.29
58668;BME280;59852;43.086;25.634;2023-08-30T07:22:15;97895.63;;;25.48;54.60
58668;BME280;59852;43.086;25.634;2023-08-30T07:24:44;97895.88;;;26.06;53.19
58668;BME280;59852;43.086;25.634;2023-08-30T07:27:10;97905.34;;;25.60;53.55
58668;BME280;59852;43.086;25.634;2023-08-30T07:29:37;97908.28;;;26.30;52.46
58668;BME280;59852;43.086;25.634;2023-08-30T07:32:03;97906.25;;;26.56;51.74
58668;BME280;59852;43.086;25.634;2023-08-30T07:34:28;97910.81;;;26.55;50.53
58668;BME280;59852;43.086;25.634;2023-08-30T07:36:53;97909.84;;;26.08;52.17
58668;BME280;59852;43.086;25.634;2023-08-30T07:39:19;97907.06;;;26.92;50.81
58668;BME280;59852;43.086;25.634;2023-08-30T07:41:44;97909.63;;;27.10;49.57
58668;BME280;59852;43.086;25.634;2023-08-30T07:44:10;97893.06;;;27.13;48.94
58668;BME280;59852;43.086;25.634;2023-08-30T07:46:35;97896.56;;;27.65;48.90
58668;BME280;59852;43.086;25.634;2023-08-30T07:49:00;97905.06;;;26.52;49.84
58668;BME280;59852;43.086;25.634;2023-08-30T07:51:26;97902.94;;;27.36;49.56
58668;BME280;59852;43.086;25.634;2023-08-30T07:53:51;97899.47;;;27.00;49.13
58668;BME280;59852;43.086;25.634;2023-08-30T07:56:16;97891.69;;;27.51;49.08
58668;BME280;59852;43.086;25.634;2023-08-30T07:58:42;97895.09;;;27.86;48.43
58668;BME280;59852;43.086;25.634;2023-08-30T08:01:10;97887.22;;;27.96;47.95
58668;BME280;59852;43.086;25.634;2023-08-30T08:03:35;97870.69;;;28.05;48.15
58668;BME280;59852;43.086;25.634;2023-08-30T08:06:00;97880.69;;;27.00;49.68
58668;BME280;59852;43.086;25.634;2023-08-30T08:08:26;97878.16;;;27.46;49.51
58668;BME280;59852;43.086;25.634;2023-08-30T08:10:51;97881.50;;;27.64;48.41
58668;BME280;59852;43.086;25.634;2023-08-30T08:13:16;97878.28;;;27.79;48.63
58668;BME280;59852;43.086;25.634;2023-08-30T08:15:42;97877.31;;;28.14;47.86
58668;BME280;59852;43.086;25.634;2023-08-30T08:18:09;97875.25;;;28.21;47.18
58668;BME280;59852;43.086;25.634;2023-08-30T08:20:34;97875.00;;;28.06;47.32
58668;BME280;59852;43.086;25.634;2023-08-30T08:22:59;97879.38;;;27.95;47.66
58668;BME280;59852;43.086;25.634;2023-08-30T08:25:25;97883.59;;;26.99;50.41
58668;BME280;59852;43.086;25.634;2023-08-30T08:27:50;97887.47;;;27.66;48.35
58668;BME280;59852;43.086;25.634;2023-08-30T08:30:16;97882.53;;;27.92;47.81
58668;BME280;59852;43.086;25.634;2023-08-30T08:32:41;97877.50;;;27.95;46.72
58668;BME280;59852;43.086;25.634;2023-08-30T08:35:07;97878.50;;;27.49;47.39
58668;BME280;59852;43.086;25.634;2023-08-30T08:37:32;97873.94;;;28.07;46.32
58668;BME280;59852;43.086;25.634;2023-08-30T08:39:58;97871.97;;;28.02;47.19
58668;BME280;59852;43.086;25.634;2023-08-30T08:42:23;97870.38;;;27.61;47.22
58668;BME280;59852;43.086;25.634;2023-08-30T08:44:52;97870.63;;;28.50;45.86
58668;BME280;59852;43.086;25.634;2023-08-30T08:47:19;97873.16;;;28.73;45.04
58668;BME280;59852;43.086;25.634;2023-08-30T08:49:44;97876.19;;;29.16;44.44
58668;BME280;59852;43.086;25.634;2023-08-30T08:52:11;97870.66;;;29.05;45.16
58668;BME280;59852;43.086;25.634;2023-08-30T08:54:39;97867.31;;;28.98;44.96
58668;BME280;59852;43.086;25.634;2023-08-30T08:57:06;97863.66;;;29.26;44.43
58668;BME280;59852;43.086;25.634;2023-08-30T08:59:32;97872.28;;;29.28;44.67
58668;BME280;59852;43.086;25.634;2023-08-30T09:01:58;97860.34;;;29.41;43.86
58668;BME280;59852;43.086;25.634;2023-08-30T09:04:24;97855.00;;;29.46;44.58
58668;BME280;59852;43.086;25.634;2023-08-30T09:06:50;97853.22;;;29.52;43.81
58668;BME280;59852;43.086;25.634;2023-08-30T09:09:15;97859.88;;;29.27;44.56
58668;BME280;59852;43.086;25.634;2023-08-30T09:11:40;97859.41;;;29.79;43.20
58668;BME280;59852;43.086;25.634;2023-08-30T09:14:06;97846.34;;;30.20;42.78
58668;BME280;59852;43.086;25.634;2023-08-30T09:16:31;97843.22;;;30.06;42.51
58668;BME280;59852;43.086;25.634;2023-08-30T09:18:59;97842.56;;;29.94;43.29
58668;BME280;59852;43.086;25.634;2023-08-30T09:21:25;97841.78;;;30.25;41.74
58668;BME280;59852;43.086;25.634;2023-08-30T09:24:00;97833.19;;;30.29;41.99
58668;BME280;59852;43.086;25.634;2023-08-30T09:26:26;97842.22;;;29.85;43.24
58668;BME280;59852;43.086;25.634;2023-08-30T09:28:53;97839.72;;;30.38;42.57
58668;BME280;59852;43.086;25.634;2023-08-30T09:31:19;97825.09;;;30.29;41.99
58668;BME280;59852;43.086;25.634;2023-08-30T09:33:45;97822.91;;;30.25;42.47
58668;BME280;59852;43.086;25.634;2023-08-30T09:36:13;97816.34;;;30.11;42.79
58668;BME280;59852;43.086;25.634;2023-08-30T09:38:38;97816.09;;;29.59;43.58
58668;BME280;59852;43.086;25.634;2023-08-30T09:41:04;97822.13;;;29.00;44.66
58668;BME280;59852;43.086;25.634;2023-08-30T09:43:29;97823.16;;;28.61;46.10
58668;BME280;59852;43.086;25.634;2023-08-30T09:45:55;97817.97;;;29.58;44.19
58668;BME280;59852;43.086;25.634;2023-08-30T09:48:21;97813.09;;;30.09;43.01
58668;BME280;59852;43.086;25.634;2023-08-30T09:50:47;97818.03;;;30.22;43.12
58668;BME280;59852;43.086;25.634;2023-08-30T09:53:14;97810.94;;;29.57;43.89
58668;BME280;59852;43.086;25.634;2023-08-30T09:55:40;97804.19;;;29.82;43.55
58668;BME280;59852;43.086;25.634;2023-08-30T09:58:06;97814.47;;;30.17;42.46
58668;BME280;59852;43.086;25.634;2023-08-30T10:00:32;97804.00;;;30.20;42.34
58668;BME280;59852;43.086;25.634;2023-08-30T10:02:59;97806.13;;;29.37;44.40
58668;BME280;59852;43.086;25.634;2023-08-30T10:05:24;97806.44;;;29.63;44.56
58668;BME280;59852;43.086;25.634;2023-08-30T10:07:51;97799.16;;;30.22;42.72
58668;BME280;59852;43.086;25.634;2023-08-30T10:10:17;97796.13;;;30.51;42.74
58668;BME280;59852;43.086;25.634;2023-08-30T10:12:43;97794.00;;;30.58;42.33
58668;BME280;59852;43.086;25.634;2023-08-30T10:15:11;97791.22;;;30.48;42.22
58668;BME280;59852;43.086;25.634;2023-08-30T10:17:36;97796.13;;;30.56;41.88
58668;BME280;59852;43.086;25.634;2023-08-30T10:20:06;97797.88;;;30.35;42.09
58668;BME280;59852;43.086;25.634;2023-08-30T10:22:32;97788.06;;;30.61;41.08
58668;BME280;59852;43.086;25.634;2023-08-30T10:25:04;97788.97;;;30.77;41.23
58668;BME280;59852;43.086;25.634;2023-08-30T10:27:31;97778.38;;;30.23;41.23
58668;BME280;59852;43.086;25.634;2023-08-30T10:29:58;97776.56;;;30.34;41.80
58668;BME280;59852;43.086;25.634;2023-08-30T10:32:24;97781.72;;;30.82;41.60
58668;BME280;59852;43.086;25.634;2023-08-30T10:34:50;97771.28;;;30.54;41.14
58668;BME280;59852;43.086;25.634;2023-08-30T10:37:15;97773.41;;;30.47;43.15
58668;BME280;59852;43.086;25.634;2023-08-30T10:39:42;97780.19;;;30.54;42.26
58668;BME280;59852;43.086;25.634;2023-08-30T10:42:08;97776.91;;;30.42;41.95
58668;BME280;59852;43.086;25.634;2023-08-30T10:44:34;97769.38;;;31.02;41.51
58668;BME280;59852;43.086;25.634;2023-08-30T10:47:02;97770.47;;;31.01;41.36
58668;BME280;59852;43.086;25.634;2023-08-30T10:49:29;97765.63;;;31.08;41.38
58668;BME280;59852;43.086;25.634;2023-08-30T10:51:55;97757.78;;;31.01;40.93
58668;BME280;59852;43.086;25.634;2023-08-30T10:54:22;97751.94;;;31.30;40.70
58668;BME280;59852;43.086;25.634;2023-08-30T10:59:20;97749.75;;;30.59;41.64
58668;BME280;59852;43.086;25.634;2023-08-30T11:01:47;97749.91;;;30.90;40.59
58668;BME280;59852;43.086;25.634;2023-08-30T11:04:14;97745.34;;;31.05;40.32
58668;BME280;59852;43.086;25.634;2023-08-30T11:06:42;97744.78;;;30.93;41.50
58668;BME280;59852;43.086;25.634;2023-08-30T11:09:08;97744.09;;;31.23;40.97
58668;BME280;59852;43.086;25.634;2023-08-30T11:11:33;97738.06;;;31.01;40.49
58668;BME280;59852;43.086;25.634;2023-08-30T11:14:03;97731.03;;;31.05;40.03
58668;BME280;59852;43.086;25.634;2023-08-30T11:16:29;97729.72;;;31.12;40.90
58668;BME280;59852;43.086;25.634;2023-08-30T11:18:54;97726.84;;;31.39;40.09
58668;BME280;59852;43.086;25.634;2023-08-30T11:21:19;97724.69;;;31.47;40.14
58668;BME280;59852;43.086;25.634;2023-08-30T11:23:45;97719.91;;;30.29;41.59
58668;BME280;59852;43.086;25.634;2023-08-30T11:26:10;97707.47;;;30.80;41.14
58668;BME280;59852;43.086;25.634;2023-08-30T11:28:37;97715.28;;;30.71;40.67
58668;BME280;59852;43.086;25.634;2023-08-30T11:31:08;97712.50;;;31.54;40.15
58668;BME280;59852;43.086;25.634;2023-08-30T11:33:34;97710.63;;;31.70;41.07
58668;BME280;59852;43.086;25.634;2023-08-30T11:35:59;97704.44;;;31.90;40.45
58668;BME280;59852;43.086;25.634;2023-08-30T11:38:26;97699.53;;;31.72;40.98
58668;BME280;59852;43.086;25.634;2023-08-30T11:40:51;97704.16;;;31.96;39.03
58668;BME280;59852;43.086;25.634;2023-08-30T11:43:17;97696.59;;;31.78;40.58
58668;BME280;59852;43.086;25.634;2023-08-30T11:45:42;97705.78;;;31.67;38.71
58668;BME280;59852;43.086;25.634;2023-08-30T11:48:07;97695.22;;;30.62;40.70
58668;BME280;59852;43.086;25.634;2023-08-30T11:50:33;97698.72;;;31.30;40.82
58668;BME280;59852;43.086;25.634;2023-08-30T11:52:59;97696.03;;;31.71;39.02
58668;BME280;59852;43.086;25.634;2023-08-30T11:55:24;97691.53;;;30.68;40.84
58668;BME280;59852;43.086;25.634;2023-08-30T11:57:50;97687.91;;;31.40;40.22
58668;BME280;59852;43.086;25.634;2023-08-30T12:00:17;97689.56;;;31.57;40.13
58668;BME280;59852;43.086;25.634;2023-08-30T12:02:43;97689.00;;;31.65;39.67
58668;BME280;59852;43.086;25.634;2023-08-30T12:05:15;97680.81;;;31.14;39.66
58668;BME280;59852;43.086;25.634;2023-08-30T12:07:41;97683.34;;;31.56;39.14
58668;BME280;59852;43.086;25.634;2023-08-30T12:10:10;97679.53;;;31.52;39.27
58668;BME280;59852;43.086;25.634;2023-08-30T12:12:36;97676.50;;;31.13;40.20
58668;BME280;59852;43.086;25.634;2023-08-30T12:15:10;97673.88;;;31.49;39.68
58668;BME280;59852;43.086;25.634;2023-08-30T12:17:36;97678.19;;;31.65;38.77
58668;BME280;59852;43.086;25.634;2023-08-30T12:20:02;97676.31;;;31.91;38.31
58668;BME280;59852;43.086;25.634;2023-08-30T12:22:40;97670.06;;;31.95;38.37
58668;BME280;59852;43.086;25.634;2023-08-30T12:25:21;97670.56;;;32.13;38.72
58668;BME280;59852;43.086;25.634;2023-08-30T12:27:48;97666.50;;;32.25;37.59
58668;BME280;59852;43.086;25.634;2023-08-30T12:30:14;97661.66;;;32.17;38.07
58668;BME280;59852;43.086;25.634;2023-08-30T12:32:40;97653.22;;;32.29;38.10
58668;BME280;59852;43.086;25.634;2023-08-30T12:35:05;97644.56;;;32.22;38.57
58668;BME280;59852;43.086;25.634;2023-08-30T12:37:30;97644.16;;;31.79;38.48
58668;BME280;59852;43.086;25.634;2023-08-30T12:39:56;97640.88;;;31.36;39.05
58668;BME280;59852;43.086;25.634;2023-08-30T12:42:21;97634.38;;;31.83;38.97
58668;BME280;59852;43.086;25.634;2023-08-30T12:44:46;97630.81;;;32.13;38.76
58668;BME280;59852;43.086;25.634;2023-08-30T12:47:12;97634.41;;;31.78;39.10
58668;BME280;59852;43.086;25.634;2023-08-30T12:49:39;97621.41;;;31.14;39.14
58668;BME280;59852;43.086;25.634;2023-08-30T12:52:04;97620.31;;;31.10;39.40
58668;BME280;59852;43.086;25.634;2023-08-30T12:54:30;97617.09;;;31.69;39.91